Time;durP1;ratioP1;P1;durP2;ratioP2;P2;SDS_P1;SDS_P2;PMS_P1;PMS_P2;Temp;Humidity;BMP_temperature;BMP_pressure;BME280_temperature;BME280_humidity;BME280_pressure;Samples;Min_cycle;Max_cycle;Signal;HPM_P1;HPM_P2
2021/03/09 00:02:12;;;;;;;24.77;13.85;;;-1.30;99.90;;;;;;5012173;28;20040;-68
2021/03/09 00:04:38;;;;;;;25.40;13.95;;;-1.30;99.90;;;;;;5023945;28;20085;-69
2021/03/09 00:07:04;;;;;;;22.83;13.90;;;-1.30;99.90;;;;;;5025997;28;20036;-69
2021/03/09 00:09:29;;;;;;;24.70;13.48;;;-1.40;99.90;;;;;;5024853;28;20060;-69
2021/03/09 00:11:55;;;;;;;22.98;13.50;;;-1.40;99.90;;;;;;5010966;28;20050;-68
2021/03/09 00:14:20;;;;;;;26.58;15.20;;;-1.40;99.90;;;;;;5005413;28;20683;-69
2021/03/09 00:16:46;;;;;;;24.85;13.77;;;-1.40;99.90;;;;;;4993488;28;20141;-68
2021/03/09 00:19:12;;;;;;;23.10;14.00;;;-1.50;99.90;;;;;;4993134;28;20057;-68
2021/03/09 00:21:38;;;;;;;25.48;14.82;;;-1.50;99.90;;;;;;4993055;28;20030;-68
2021/03/09 00:24:04;;;;;;;23.15;13.93;;;-1.50;99.90;;;;;;5009565;28;20384;-68
2021/03/09 00:26:29;;;;;;;25.60;14.70;;;-1.50;99.90;;;;;;5014042;28;20030;-68
2021/03/09 00:28:55;;;;;;;24.00;12.70;;;-1.50;99.90;;;;;;5014069;28;20563;-68
2021/03/09 00:31:20;;;;;;;23.38;13.85;;;-1.50;99.90;;;;;;5018543;28;20026;-70
2021/03/09 00:33:46;;;;;;;23.85;13.10;;;-1.50;99.90;;;;;;5020698;28;20439;-69
2021/03/09 00:36:12;;;;;;;22.85;13.65;;;-1.50;99.90;;;;;;5020130;28;20392;-68
2021/03/09 00:38:37;;;;;;;23.38;12.52;;;-1.50;99.90;;;;;;5014604;28;20392;-70
2021/03/09 00:41:03;;;;;;;20.63;12.93;;;-1.50;99.90;;;;;;5014144;28;20017;-69
2021/03/09 00:43:29;;;;;;;26.20;12.38;;;-1.60;99.90;;;;;;5013008;28;20148;-69
2021/03/09 00:45:54;;;;;;;26.98;13.80;;;-1.60;99.90;;;;;;5013375;28;20037;-69
2021/03/09 00:48:20;;;;;;;21.00;12.82;;;-1.60;99.90;;;;;;5013685;28;20030;-69
2021/03/09 00:50:45;;;;;;;22.67;13.15;;;-1.60;99.90;;;;;;5013591;28;20032;-69
2021/03/09 00:53:11;;;;;;;25.60;13.93;;;-1.70;99.90;;;;;;5014865;28;20026;-68
2021/03/09 00:55:37;;;;;;;26.58;14.35;;;-1.70;99.90;;;;;;5010007;28;20022;-69
2021/03/09 00:58:02;;;;;;;28.05;14.07;;;-1.70;99.90;;;;;;5010537;28;20049;-69
2021/03/09 01:00:29;;;;;;;25.02;14.13;;;-1.70;99.90;;;;;;5005441;28;20074;-69
2021/03/09 01:02:55;;;;;;;24.35;14.30;;;-1.70;99.90;;;;;;4999981;28;20022;-69
2021/03/09 01:05:24;;;;;;;24.38;14.05;;;-1.80;99.90;;;;;;5026203;28;20026;-70
2021/03/09 01:07:50;;;;;;;25.33;14.13;;;-1.80;99.90;;;;;;5035371;28;20474;-68
2021/03/09 01:10:17;;;;;;;21.52;12.85;;;-1.80;99.90;;;;;;5012825;28;20030;-70
2021/03/09 01:12:43;;;;;;;29.75;14.60;;;-1.80;99.90;;;;;;4999876;28;20057;-68
2021/03/09 01:15:10;;;;;;;24.58;13.85;;;-1.80;99.90;;;;;;4999686;28;20026;-68
2021/03/09 01:17:36;;;;;;;26.13;13.68;;;-1.80;99.90;;;;;;4997473;28;20098;-68
2021/03/09 01:20:05;;;;;;;25.65;14.27;;;-1.90;99.90;;;;;;5014433;28;20026;-68
2021/03/09 01:22:30;;;;;;;22.42;13.13;;;-1.90;99.90;;;;;;5013056;28;20112;-69
2021/03/09 01:24:56;;;;;;;25.05;14.45;;;-2.00;99.90;;;;;;5018448;28;20022;-69
2021/03/09 01:27:22;;;;;;;26.70;14.77;;;-2.00;99.90;;;;;;5027013;28;20022;-69
2021/03/09 01:29:47;;;;;;;24.92;14.25;;;-2.00;99.90;;;;;;5025677;28;20030;-69
2021/03/09 01:32:13;;;;;;;23.63;14.73;;;-2.00;99.90;;;;;;5026612;28;20034;-69
2021/03/09 01:34:39;;;;;;;27.60;14.60;;;-2.00;99.90;;;;;;5029798;28;20046;-70
2021/03/09 01:37:04;;;;;;;24.30;13.90;;;-2.00;99.90;;;;;;5016936;28;20030;-68
2021/03/09 01:39:31;;;;;;;24.65;14.30;;;-2.00;99.90;;;;;;5029188;28;20025;-70
2021/03/09 01:41:57;;;;;;;26.58;14.70;;;-2.00;99.90;;;;;;5037771;28;20030;-70
2021/03/09 01:44:24;;;;;;;23.83;13.55;;;-2.00;99.90;;;;;;5037104;28;20013;-67
2021/03/09 01:46:50;;;;;;;26.70;13.80;;;-2.10;99.90;;;;;;5026878;28;20017;-69
2021/03/09 01:49:17;;;;;;;28.08;14.32;;;-2.10;99.90;;;;;;5035767;28;20052;-70
2021/03/09 01:51:44;;;;;;;22.80;13.40;;;-2.10;99.90;;;;;;5034154;28;20026;-70
2021/03/09 01:54:12;;;;;;;23.85;13.52;;;-2.10;99.90;;;;;;5033738;28;20022;-69
2021/03/09 01:56:40;;;;;;;22.42;13.45;;;-2.10;99.90;;;;;;5033244;28;20071;-70
2021/03/09 01:59:07;;;;;;;25.95;13.25;;;-2.10;99.90;;;;;;5032756;28;20376;-69
2021/03/09 02:01:34;;;;;;;30.08;15.25;;;-2.20;99.90;;;;;;5019012;28;20109;-69
2021/03/09 02:03:59;;;;;;;28.25;14.65;;;-2.10;99.90;;;;;;5011502;28;20476;-68
2021/03/09 02:06:25;;;;;;;27.55;14.18;;;-2.20;99.90;;;;;;5012333;28;20041;-69
2021/03/09 02:08:51;;;;;;;27.63;13.68;;;-2.10;99.90;;;;;;5011924;28;20515;-69
2021/03/09 02:11:36;;;;;;;28.25;13.88;;;-2.20;99.90;;;;;;5012105;28;20026;-70
2021/03/09 02:14:21;;;;;;;31.30;14.63;;;-2.20;99.90;;;;;;5011279;28;20034;-69
2021/03/09 02:16:57;;;;;;;26.38;14.43;;;-2.20;99.90;;;;;;5011941;28;20022;-70
2021/03/09 02:20:00;;;;;;;31.70;15.10;;;-2.20;99.90;;;;;;5011619;28;20022;-69
2021/03/09 02:23:10;;;;;;;32.33;16.08;;;-2.20;99.90;;;;;;5011688;28;20034;-69
2021/03/09 02:25:53;;;;;;;29.65;14.75;;;-2.30;99.90;;;;;;4989277;28;20045;-69
2021/03/09 02:28:28;;;;;;;29.55;14.82;;;-2.30;99.90;;;;;;5010669;28;20053;-69
2021/03/09 02:30:56;;;;;;;29.67;15.55;;;-2.30;99.90;;;;;;4991451;28;20026;-70
2021/03/09 02:33:42;;;;;;;27.00;15.02;;;-2.30;99.90;;;;;;4992959;28;20376;-68
2021/03/09 02:36:12;;;;;;;26.83;15.43;;;-2.30;99.90;;;;;;5013991;28;20026;-70
2021/03/09 02:38:58;;;;;;;29.17;15.45;;;-2.30;99.90;;;;;;5015649;28;20022;-69
2021/03/09 02:41:25;;;;;;;28.00;13.90;;;-2.40;99.90;;;;;;5014476;28;20084;-69
2021/03/09 02:43:54;;;;;;;26.88;14.48;;;-2.50;99.90;;;;;;5010345;28;20050;-69
2021/03/09 02:46:23;;;;;;;25.33;14.95;;;-2.50;99.90;;;;;;4996207;28;20026;-70
2021/03/09 02:48:50;;;;;;;27.85;14.80;;;-2.50;99.90;;;;;;4996022;28;20086;-69
2021/03/09 02:51:16;;;;;;;34.47;16.10;;;-2.50;99.90;;;;;;4995668;28;20142;-69
2021/03/09 02:53:48;;;;;;;32.60;15.75;;;-2.50;99.90;;;;;;4995364;28;20081;-70
2021/03/09 02:56:14;;;;;;;25.00;13.83;;;-2.50;99.90;;;;;;4996016;28;20027;-69
2021/03/09 02:58:48;;;;;;;27.15;14.82;;;-2.50;99.90;;;;;;4995857;28;20376;-70
2021/03/09 03:01:15;;;;;;;25.48;14.57;;;-2.60;99.90;;;;;;4995817;28;20031;-70
2021/03/09 03:03:43;;;;;;;25.67;15.20;;;-2.60;99.90;;;;;;5006486;28;20025;-68
2021/03/09 03:06:11;;;;;;;27.63;14.75;;;-2.70;99.90;;;;;;5015302;28;20025;-70
2021/03/09 03:08:39;;;;;;;23.38;14.13;;;-2.60;99.90;;;;;;5014586;28;20037;-69
2021/03/09 03:11:06;;;;;;;26.80;13.85;;;-2.70;99.90;;;;;;5015382;28;20026;-69
2021/03/09 03:13:33;;;;;;;28.15;15.90;;;-2.70;99.90;;;;;;5014642;28;20026;-68
2021/03/09 03:16:00;;;;;;;23.45;14.18;;;-2.70;99.90;;;;;;5014771;28;20058;-69
2021/03/09 03:18:29;;;;;;;26.83;14.32;;;-2.70;99.90;;;;;;5014813;28;20105;-69
2021/03/09 03:20:55;;;;;;;27.67;14.45;;;-2.80;99.90;;;;;;5015182;28;20428;-69
2021/03/09 03:23:23;;;;;;;28.80;15.57;;;-2.80;99.90;;;;;;5012593;28;20049;-68
2021/03/09 03:25:52;;;;;;;31.48;15.70;;;-2.80;99.90;;;;;;5013962;28;20037;-69
2021/03/09 03:28:19;;;;;;;32.72;15.65;;;-2.80;99.90;;;;;;5015748;28;20018;-69
2021/03/09 03:30:45;;;;;;;23.65;14.82;;;-2.80;99.90;;;;;;5018404;28;20034;-69
2021/03/09 03:33:11;;;;;;;32.08;16.38;;;-2.80;99.90;;;;;;5031381;28;20041;-69
2021/03/09 03:35:38;;;;;;;28.77;15.60;;;-2.80;99.90;;;;;;5023464;28;20026;-73
2021/03/09 03:38:04;;;;;;;30.90;14.55;;;-2.90;99.90;;;;;;5016281;28;20026;-70
2021/03/09 03:40:30;;;;;;;26.92;15.48;;;-2.90;99.90;;;;;;5017252;28;20033;-74
2021/03/09 03:42:56;;;;;;;27.77;16.17;;;-2.80;99.90;;;;;;5022565;28;20101;-71
2021/03/09 03:45:23;;;;;;;30.27;16.95;;;-2.90;99.90;;;;;;5023195;28;20152;-72
2021/03/09 03:47:55;;;;;;;27.98;15.45;;;-2.90;99.90;;;;;;5022151;28;20028;-70
2021/03/09 03:50:21;;;;;;;28.45;15.82;;;-2.90;99.90;;;;;;5020782;28;20018;-72
2021/03/09 03:53:21;;;;;;;28.77;15.48;;;-2.90;99.90;;;;;;5021619;28;20112;-71
2021/03/09 03:56:29;;;;;;;31.70;16.00;;;-2.90;99.90;;;;;;5017174;28;20100;-71
2021/03/09 03:59:03;;;;;;;27.52;14.98;;;-2.90;99.90;;;;;;5023666;28;20466;-72
2021/03/09 04:01:31;;;;;;;27.25;15.85;;;-2.90;99.90;;;;;;5023570;28;20707;-72
2021/03/09 04:03:59;;;;;;;26.85;15.38;;;-2.90;99.90;;;;;;5018385;28;20037;-71
2021/03/09 04:06:27;;;;;;;29.95;15.23;;;-3.00;99.90;;;;;;5022787;28;20215;-71
2021/03/09 04:08:58;;;;;;;28.60;15.68;;;-2.90;99.90;;;;;;5021161;28;20029;-71
2021/03/09 04:11:25;;;;;;;27.45;14.98;;;-3.00;99.90;;;;;;5022127;28;20055;-72
2021/03/09 04:13:52;;;;;;;32.35;16.20;;;-3.00;99.90;;;;;;5023175;28;20022;-72
2021/03/09 04:16:19;;;;;;;30.83;16.20;;;-3.00;99.90;;;;;;5021826;28;20752;-70
2021/03/09 04:18:48;;;;;;;27.23;15.00;;;-3.00;99.90;;;;;;5022264;28;20515;-70
2021/03/09 04:21:15;;;;;;;29.10;16.10;;;-3.00;99.90;;;;;;5017869;28;20064;-70
2021/03/09 04:23:41;;;;;;;31.45;16.50;;;-3.00;99.90;;;;;;5017405;28;20056;-70
2021/03/09 04:26:08;;;;;;;24.83;15.88;;;-3.00;99.90;;;;;;5012360;28;20025;-69
2021/03/09 04:28:34;;;;;;;32.10;17.92;;;-3.00;99.90;;;;;;5013763;28;20022;-71
2021/03/09 04:31:00;;;;;;;28.85;15.85;;;-3.00;99.90;;;;;;5013419;28;20034;-70
2021/03/09 04:33:30;;;;;;;27.90;15.45;;;-3.00;99.90;;;;;;5013406;28;20038;-70
2021/03/09 04:35:56;;;;;;;31.00;15.75;;;-3.10;99.90;;;;;;5012309;28;20177;-71
2021/03/09 04:38:23;;;;;;;29.42;15.40;;;-3.00;99.90;;;;;;5013767;28;20045;-71
2021/03/09 04:40:49;;;;;;;28.52;15.00;;;-3.10;99.90;;;;;;5012135;28;20041;-70
2021/03/09 04:43:15;;;;;;;27.27;14.38;;;-3.10;99.90;;;;;;5012732;28;20025;-70
2021/03/09 04:45:41;;;;;;;28.75;15.05;;;-3.10;99.90;;;;;;5012475;28;20033;-70
2021/03/09 04:48:07;;;;;;;26.42;15.68;;;-3.20;99.90;;;;;;5012398;28;20022;-71
2021/03/09 04:50:35;;;;;;;27.33;15.55;;;-3.10;99.90;;;;;;5013485;28;20032;-70
2021/03/09 04:53:01;;;;;;;26.85;14.93;;;-3.10;99.90;;;;;;5012935;28;20022;-71
2021/03/09 04:55:27;;;;;;;26.85;15.55;;;-3.10;99.90;;;;;;5013322;28;20084;-71
2021/03/09 04:57:53;;;;;;;29.63;16.45;;;-3.20;99.90;;;;;;5013179;28;20025;-70
2021/03/09 05:00:22;;;;;;;28.42;15.77;;;-3.10;99.90;;;;;;5013740;28;20622;-70
2021/03/09 05:02:49;;;;;;;27.08;15.90;;;-3.20;99.90;;;;;;5012759;28;20026;-70
2021/03/09 05:05:16;;;;;;;31.40;16.42;;;-3.10;99.90;;;;;;5013362;28;20045;-71
2021/03/09 05:07:43;;;;;;;27.80;15.15;;;-3.20;99.90;;;;;;5013142;28;20030;-72
2021/03/09 05:10:10;;;;;;;33.45;18.70;;;-3.20;99.90;;;;;;5013644;28;20026;-72
2021/03/09 05:12:40;;;;;;;32.95;15.73;;;-3.20;99.90;;;;;;5027708;28;20090;-73
2021/03/09 05:15:06;;;;;;;26.92;15.75;;;-3.20;99.90;;;;;;5036119;28;20021;-73
2021/03/09 05:17:32;;;;;;;32.63;17.27;;;-3.20;99.90;;;;;;5032801;28;20030;-73
2021/03/09 05:19:58;;;;;;;27.30;16.35;;;-3.20;99.90;;;;;;5021131;28;20109;-73
2021/03/09 05:22:23;;;;;;;29.83;16.50;;;-3.20;99.90;;;;;;5016610;28;20056;-73
2021/03/09 05:24:50;;;;;;;31.98;16.80;;;-3.20;99.90;;;;;;5033471;28;20037;-72
2021/03/09 05:27:15;;;;;;;28.85;16.88;;;-3.20;99.90;;;;;;5028932;28;20033;-73
2021/03/09 05:29:41;;;;;;;27.77;16.60;;;-3.20;99.90;;;;;;5014299;28;20033;-72
2021/03/09 05:32:07;;;;;;;30.42;17.20;;;-3.30;99.90;;;;;;5015205;28;20524;-72
2021/03/09 05:34:32;;;;;;;27.90;15.75;;;-3.30;99.90;;;;;;5016468;28;20373;-72
2021/03/09 05:36:58;;;;;;;35.75;16.75;;;-3.30;99.90;;;;;;5012574;28;20018;-72
2021/03/09 05:39:24;;;;;;;28.17;16.25;;;-3.30;99.90;;;;;;5011497;28;20033;-72
2021/03/09 05:41:50;;;;;;;26.58;16.38;;;-3.40;99.90;;;;;;5012950;28;20544;-72
2021/03/09 05:44:16;;;;;;;29.38;17.13;;;-3.40;99.90;;;;;;5012032;28;20033;-72
2021/03/09 05:46:42;;;;;;;31.65;16.95;;;-3.40;99.90;;;;;;5013138;28;20097;-73
2021/03/09 05:49:09;;;;;;;32.33;16.45;;;-3.40;99.90;;;;;;5012717;28;20068;-72
2021/03/09 05:51:35;;;;;;;31.70;17.13;;;-3.40;99.90;;;;;;5012537;28;20709;-71
2021/03/09 05:54:00;;;;;;;30.90;16.48;;;-3.40;99.90;;;;;;5011859;28;20037;-72
2021/03/09 05:56:26;;;;;;;34.58;15.38;;;-3.40;99.90;;;;;;5015141;28;20587;-68
2021/03/09 05:58:52;;;;;;;30.17;17.08;;;-3.30;99.90;;;;;;5019944;28;20025;-71
2021/03/09 06:01:19;;;;;;;26.10;15.85;;;-3.30;99.90;;;;;;5024419;28;20053;-70
2021/03/09 06:03:44;;;;;;;29.33;15.85;;;-3.20;99.90;;;;;;5027118;28;20030;-70
2021/03/09 06:06:12;;;;;;;28.67;16.00;;;-3.20;99.90;;;;;;5022483;28;20038;-71
2021/03/09 06:08:38;;;;;;;32.83;16.63;;;-3.20;99.90;;;;;;5017671;28;20030;-71
2021/03/09 06:11:13;;;;;;;29.30;16.75;;;-3.10;99.90;;;;;;5022131;28;20037;-71
2021/03/09 06:13:38;;;;;;;30.13;16.48;;;-3.10;99.90;;;;;;5019212;28;20018;-71
2021/03/09 06:16:04;;;;;;;28.45;16.10;;;-3.10;99.90;;;;;;5014586;28;20153;-71
2021/03/09 06:18:30;;;;;;;30.50;17.13;;;-3.00;99.90;;;;;;5007382;28;20029;-68
2021/03/09 06:21:09;;;;;;;33.90;18.85;;;-2.80;99.90;;;;;;5011910;28;20026;-68
2021/03/09 06:23:35;;;;;;;41.00;21.50;;;-2.60;99.90;;;;;;5010996;28;20042;-69
2021/03/09 06:26:01;;;;;;;36.22;19.13;;;-2.40;99.90;;;;;;5011577;28;20034;-69
2021/03/09 06:28:31;;;;;;;29.90;17.73;;;-2.20;99.90;;;;;;5011806;28;20109;-70
2021/03/09 06:31:01;;;;;;;31.33;16.50;;;-2.10;99.90;;;;;;5011422;28;20022;-69
2021/03/09 06:33:29;;;;;;;28.05;17.10;;;-2.00;99.90;;;;;;5028081;28;20033;-69
2021/03/09 06:35:57;;;;;;;31.55;18.38;;;-2.00;99.90;;;;;;5031763;28;20025;-69
2021/03/09 06:38:23;;;;;;;33.72;17.42;;;-2.00;99.90;;;;;;5015474;28;20377;-69
2021/03/09 06:41:10;;;;;;;29.70;17.05;;;-1.90;99.90;;;;;;5010759;28;20080;-68
2021/03/09 06:43:38;;;;;;;30.67;16.83;;;-1.90;99.90;;;;;;5010070;28;20054;-69
2021/03/09 06:46:18;;;;;;;29.88;15.90;;;-1.80;99.90;;;;;;5011614;28;20034;-69
2021/03/09 06:48:49;;;;;;;25.52;15.48;;;-1.80;99.90;;;;;;5011610;28;20022;-70
2021/03/09 06:51:24;;;;;;;25.33;15.15;;;-1.70;99.90;;;;;;5011001;28;20365;-71
2021/03/09 06:54:00;;;;;;;27.08;14.43;;;-1.60;99.90;;;;;;5011699;28;20076;-72
2021/03/09 06:56:26;;;;;;;24.55;14.45;;;-1.60;99.90;;;;;;5011533;28;20030;-71
2021/03/09 06:58:52;;;;;;;29.63;15.50;;;-1.50;99.90;;;;;;5011905;28;20054;-70
2021/03/09 07:01:17;;;;;;;25.90;14.65;;;-1.60;99.90;;;;;;5010091;28;20061;-71
2021/03/09 07:03:43;;;;;;;28.05;15.48;;;-1.50;99.90;;;;;;5011114;28;20030;-71
2021/03/09 07:06:09;;;;;;;22.75;15.50;;;-1.40;99.90;;;;;;5008474;28;20033;-71
2021/03/09 07:08:35;;;;;;;31.63;15.40;;;-1.50;99.90;;;;;;5010738;28;20041;-69
2021/03/09 07:11:00;;;;;;;26.67;15.10;;;-1.40;99.90;;;;;;5013250;28;20084;-70
2021/03/09 07:13:28;;;;;;;32.70;14.93;;;-1.20;99.90;;;;;;5017751;28;20056;-70
2021/03/09 07:15:55;;;;;;;24.38;14.88;;;-1.20;99.90;;;;;;5032783;28;20101;-69
2021/03/09 07:18:26;;;;;;;32.40;16.20;;;-1.30;99.90;;;;;;5023971;28;20049;-71
2021/03/09 07:20:53;;;;;;;23.45;15.50;;;-1.20;99.90;;;;;;5009806;28;20136;-71
2021/03/09 07:23:21;;;;;;;28.20;15.18;;;-1.10;99.90;;;;;;4994837;28;20026;-69
2021/03/09 07:25:51;;;;;;;31.58;15.98;;;-1.20;99.90;;;;;;4996056;28;20401;-70
2021/03/09 07:28:19;;;;;;;32.22;16.17;;;-1.10;99.90;;;;;;5004622;28;20508;-69
2021/03/09 07:30:49;;;;;;;29.50;16.10;;;-0.80;99.90;;;;;;5010781;28;20030;-69
2021/03/09 07:33:16;;;;;;;33.72;16.75;;;-0.60;99.90;;;;;;5015110;28;20026;-70
2021/03/09 07:35:43;;;;;;;28.73;15.60;;;-0.50;99.90;;;;;;5014002;28;20030;-70
2021/03/09 07:38:10;;;;;;;29.52;15.93;;;-0.40;99.90;;;;;;5015894;28;20022;-71
2021/03/09 07:40:36;;;;;;;29.55;16.92;;;-0.40;99.90;;;;;;5014600;28;20049;-70
2021/03/09 07:43:03;;;;;;;31.90;17.67;;;-0.30;99.90;;;;;;5014855;28;20022;-71
2021/03/09 07:45:34;;;;;;;31.77;17.55;;;-0.30;99.90;;;;;;5015336;28;20030;-70
2021/03/09 07:48:11;;;;;;;30.63;16.20;;;0.10;99.90;;;;;;5016798;28;20022;-69
2021/03/09 07:50:42;;;;;;;31.33;16.73;;;0.30;99.90;;;;;;5016372;28;20053;-69
2021/03/09 07:53:17;;;;;;;32.08;16.35;;;0.50;99.90;;;;;;5016141;28;20121;-69
2021/03/09 07:55:47;;;;;;;33.95;17.65;;;0.70;99.90;;;;;;5016558;28;20021;-70
2021/03/09 07:58:24;;;;;;;30.55;17.95;;;0.80;99.90;;;;;;5016829;28;20021;-69
2021/03/09 08:01:00;;;;;;;29.77;18.42;;;0.90;99.90;;;;;;5017013;28;20041;-70
2021/03/09 08:03:31;;;;;;;28.50;17.58;;;1.00;99.90;;;;;;5015632;28;20110;-70
2021/03/09 08:06:04;;;;;;;33.58;17.30;;;1.20;99.90;;;;;;5024580;28;20030;-69
2021/03/09 08:08:45;;;;;;;31.33;17.25;;;1.30;99.90;;;;;;5031728;28;20037;-69
2021/03/09 08:11:13;;;;;;;28.58;15.80;;;1.50;99.90;;;;;;5032224;28;20077;-70
2021/03/09 08:13:39;;;;;;;25.63;14.98;;;1.50;99.90;;;;;;5022947;28;20030;-72
2021/03/09 08:16:20;;;;;;;29.30;16.27;;;1.40;99.90;;;;;;5019151;28;20081;-70
2021/03/09 08:18:57;;;;;;;28.45;16.25;;;1.60;99.90;;;;;;5017895;28;20021;-73
2021/03/09 08:21:47;;;;;;;25.65;15.07;;;1.80;99.90;;;;;;5015119;28;20065;-72
2021/03/09 08:24:13;;;;;;;29.08;16.55;;;2.10;99.90;;;;;;5020627;28;20388;-72
2021/03/09 08:26:38;;;;;;;25.15;15.88;;;2.20;99.90;;;;;;5024474;28;20053;-69
2021/03/09 08:29:34;;;;;;;29.80;16.10;;;2.40;99.90;;;;;;5025167;28;20034;-71
2021/03/09 08:32:35;;;;;;;25.15;15.63;;;2.80;99.90;;;;;;5021716;28;20118;-73
2021/03/09 08:35:13;;;;;;;28.05;15.32;;;3.40;99.90;;;;;;4993607;28;20084;-70
2021/03/09 08:37:44;;;;;;;21.13;13.48;;;3.70;99.90;;;;;;5024380;28;20022;-71
2021/03/09 08:40:18;;;;;;;19.00;13.75;;;4.30;99.90;;;;;;5025651;28;20025;-70
2021/03/09 08:43:01;;;;;;;23.15;13.68;;;5.60;99.90;;;;;;5012288;28;20382;-71
2021/03/09 08:45:38;;;;;;;23.00;13.70;;;6.90;99.90;;;;;;5016224;28;21101;-71
2021/03/09 08:48:09;;;;;;;23.60;14.23;;;7.60;98.60;;;;;;5018100;28;20022;-71
2021/03/09 08:50:42;;;;;;;19.48;13.40;;;8.20;96.10;;;;;;5027874;28;20037;-71
2021/03/09 08:53:33;;;;;;;22.58;14.70;;;8.10;94.40;;;;;;5024580;28;20033;-70
2021/03/09 08:56:06;;;;;;;20.38;14.05;;;8.20;94.30;;;;;;5005925;28;20019;-71
2021/03/09 08:58:40;;;;;;;20.77;14.07;;;7.20;94.30;;;;;;4999200;28;20093;-72
2021/03/09 09:01:06;;;;;;;20.58;12.40;;;5.90;97.00;;;;;;4996519;28;20080;-70
2021/03/09 09:03:39;;;;;;;21.35;14.80;;;5.90;98.90;;;;;;5002721;28;20034;-70
2021/03/09 09:06:07;;;;;;;18.08;13.63;;;6.10;99.00;;;;;;5014668;28;20108;-69
2021/03/09 09:08:34;;;;;;;24.17;13.85;;;7.00;97.30;;;;;;5014684;28;20037;-70
2021/03/09 09:11:01;;;;;;;19.42;14.35;;;7.70;95.90;;;;;;5014400;28;20033;-70
2021/03/09 09:13:32;;;;;;;21.02;13.65;;;8.60;94.00;;;;;;5013910;28;20026;-71
2021/03/09 09:15:58;;;;;;;18.90;13.70;;;8.80;92.90;;;;;;5010510;28;20384;-70
2021/03/09 09:18:24;;;;;;;17.17;13.27;;;8.70;93.60;;;;;;5010418;28;20021;-69
2021/03/09 09:20:51;;;;;;;20.35;14.38;;;8.90;92.10;;;;;;5015410;28;20113;-69
2021/03/09 09:23:18;;;;;;;17.73;14.23;;;9.80;91.10;;;;;;5020606;28;20025;-69
2021/03/09 09:25:48;;;;;;;20.65;13.88;;;9.30;90.70;;;;;;5025429;28;20030;-69
2021/03/09 09:28:27;;;;;;;17.30;14.15;;;8.40;92.30;;;;;;5025422;28;20080;-69
2021/03/09 09:31:01;;;;;;;19.13;15.38;;;8.90;92.40;;;;;;5027535;28;20026;-71
2021/03/09 09:33:29;;;;;;;18.13;14.05;;;10.00;90.60;;;;;;5018741;28;20022;-71
2021/03/09 09:35:55;;;;;;;20.33;15.40;;;9.10;91.30;;;;;;5012333;28;20164;-70
2021/03/09 09:38:21;;;;;;;19.73;14.52;;;9.70;90.50;;;;;;5012722;28;20495;-70
2021/03/09 09:40:50;;;;;;;20.10;14.85;;;9.40;90.30;;;;;;5016324;28;20034;-70
2021/03/09 09:43:21;;;;;;;24.92;15.27;;;9.40;90.20;;;;;;5026736;28;20081;-70
2021/03/09 09:45:49;;;;;;;18.35;14.40;;;10.30;88.60;;;;;;5032631;28;20022;-69
2021/03/09 09:48:24;;;;;;;22.00;16.27;;;10.60;87.10;;;;;;5046167;28;20041;-69
2021/03/09 09:50:55;;;;;;;21.38;15.25;;;10.00;88.10;;;;;;5033437;28;20032;-70
2021/03/09 09:53:30;;;;;;;22.60;14.95;;;9.80;90.80;;;;;;5041424;28;20022;-69
2021/03/09 09:55:56;;;;;;;20.63;13.93;;;10.70;86.50;;;;;;5046683;28;20036;-70
2021/03/09 09:58:22;;;;;;;19.77;14.68;;;11.40;83.30;;;;;;5035711;28;20391;-69
2021/03/09 10:00:57;;;;;;;17.92;13.65;;;12.00;79.90;;;;;;5030403;28;20025;-70
2021/03/09 10:03:23;;;;;;;27.77;16.60;;;12.10;79.20;;;;;;5030236;28;20030;-68
2021/03/09 10:05:49;;;;;;;19.90;14.43;;;12.70;81.70;;;;;;5009610;28;20030;-66
2021/03/09 10:08:33;;;;;;;17.35;14.48;;;12.70;81.20;;;;;;5011971;28;20088;-68
2021/03/09 10:11:03;;;;;;;18.67;14.85;;;13.00;88.40;;;;;;5011862;28;20064;-67
2021/03/09 10:13:29;;;;;;;16.58;13.40;;;14.00;79.80;;;;;;5011376;28;20036;-67
2021/03/09 10:15:54;;;;;;;19.30;13.05;;;14.40;75.00;;;;;;5013522;28;20022;-66
2021/03/09 10:18:34;;;;;;;18.95;14.10;;;14.40;71.60;;;;;;5012053;28;20417;-71
2021/03/09 10:21:14;;;;;;;18.15;13.07;;;15.20;66.90;;;;;;5025289;28;20091;-70
2021/03/09 10:23:55;;;;;;;15.40;12.25;;;15.60;62.20;;;;;;5019008;28;20104;-69
2021/03/09 10:26:37;;;;;;;18.33;12.45;;;16.10;61.50;;;;;;5020050;28;20076;-70
2021/03/09 10:29:23;;;;;;;19.95;13.00;;;15.80;60.30;;;;;;5020095;28;20029;-69
2021/03/09 10:32:00;;;;;;;17.27;13.10;;;15.50;62.10;;;;;;5030183;28;20033;-70
2021/03/09 10:34:34;;;;;;;17.98;12.05;;;16.50;58.70;;;;;;5031058;28;20075;-70
2021/03/09 10:37:02;;;;;;;17.52;12.18;;;16.90;57.10;;;;;;5026497;23;20042;-65
2021/03/09 10:39:30;;;;;;;15.13;11.18;;;16.30;57.50;;;;;;4991856;28;20056;-73
2021/03/09 10:41:56;;;;;;;17.20;12.38;;;16.70;56.80;;;;;;4991080;28;20085;-74
2021/03/09 10:44:29;;;;;;;15.25;11.25;;;16.60;57.60;;;;;;5006995;28;20026;-66
2021/03/09 10:46:55;;;;;;;18.35;12.00;;;16.60;58.20;;;;;;5011436;28;20030;-68
2021/03/09 10:49:21;;;;;;;14.65;10.75;;;16.70;56.30;;;;;;5010642;28;20029;-68
2021/03/09 10:51:46;;;;;;;11.35;10.15;;;16.30;56.20;;;;;;4996857;28;20034;-68
2021/03/09 10:54:12;;;;;;;12.27;9.88;;;15.80;58.00;;;;;;4992109;28;20480;-68
2021/03/09 10:56:39;;;;;;;12.55;10.73;;;15.40;58.30;;;;;;5006668;28;20048;-68
2021/03/09 10:59:05;;;;;;;13.95;10.40;;;14.70;59.00;;;;;;5009277;28;20022;-67
2021/03/09 11:01:32;;;;;;;14.05;10.85;;;15.50;58.20;;;;;;4995393;28;20104;-67
2021/03/09 11:03:57;;;;;;;10.90;9.25;;;14.50;60.30;;;;;;4994644;28;20053;-68
2021/03/09 11:06:23;;;;;;;12.32;9.35;;;15.20;58.60;;;;;;4995219;28;20054;-67
2021/03/09 11:08:49;;;;;;;10.10;9.00;;;15.50;57.30;;;;;;4995326;28;20101;-67
2021/03/09 11:11:14;;;;;;;9.60;8.60;;;15.10;56.80;;;;;;4993541;28;20038;-66
2021/03/09 11:13:40;;;;;;;9.20;7.72;;;15.80;56.80;;;;;;4994806;28;20101;-66
2021/03/09 11:16:06;;;;;;;9.85;7.60;;;16.10;55.80;;;;;;4995147;28;20350;-66
2021/03/09 11:18:31;;;;;;;9.48;8.48;;;17.40;52.50;;;;;;4995331;28;20026;-66
2021/03/09 11:20:57;;;;;;;9.23;8.32;;;17.50;52.50;;;;;;4993694;28;20122;-66
2021/03/09 11:23:22;;;;;;;11.77;9.27;;;17.20;52.90;;;;;;4994512;28;20030;-66
2021/03/09 11:25:48;;;;;;;9.73;8.82;;;17.50;52.30;;;;;;4999867;28;20030;-66
2021/03/09 11:28:14;;;;;;;11.93;8.73;;;16.50;53.10;;;;;;5014532;28;20160;-68
2021/03/09 11:30:39;;;;;;;10.77;8.30;;;16.90;53.00;;;;;;5014404;28;20026;-66
2021/03/09 11:33:08;;;;;;;10.35;8.55;;;16.90;52.20;;;;;;5013656;28;20022;-66
2021/03/09 11:35:33;;;;;;;9.75;8.85;;;16.40;51.90;;;;;;5012986;28;20422;-66
2021/03/09 11:37:59;;;;;;;9.48;8.50;;;16.60;53.20;;;;;;5014619;28;20109;-67
2021/03/09 11:40:25;;;;;;;10.38;9.02;;;16.30;52.50;;;;;;5014845;28;20156;-66
2021/03/09 11:42:50;;;;;;;11.52;9.15;;;16.80;52.30;;;;;;5014761;28;20026;-66
2021/03/09 11:45:16;;;;;;;10.10;9.10;;;17.70;50.30;;;;;;5014616;28;20036;-67
2021/03/09 11:47:42;;;;;;;8.90;7.75;;;17.70;49.30;;;;;;5015396;28;20464;-67
2021/03/09 11:50:08;;;;;;;9.05;8.20;;;16.90;49.20;;;;;;5017694;28;20076;-66
2021/03/09 11:52:34;;;;;;;8.10;7.40;;;16.70;49.40;;;;;;5015642;28;20026;-66
2021/03/09 11:55:00;;;;;;;8.20;7.45;;;17.90;47.30;;;;;;5013511;28;20046;-66
2021/03/09 11:57:25;;;;;;;10.73;8.02;;;17.70;46.90;;;;;;5013967;28;20472;-67
2021/03/09 11:59:51;;;;;;;10.45;8.10;;;17.10;46.50;;;;;;5001721;28;20082;-66
2021/03/09 12:02:17;;;;;;;9.65;7.57;;;16.00;47.40;;;;;;4995126;28;20026;-67
2021/03/09 12:04:42;;;;;;;8.23;7.50;;;16.40;47.20;;;;;;4996094;28;20058;-66
2021/03/09 12:07:08;;;;;;;8.57;7.72;;;16.30;48.40;;;;;;4992647;28;20031;-66
2021/03/09 12:09:34;;;;;;;10.23;9.10;;;15.50;47.20;;;;;;4994166;28;20027;-66
2021/03/09 12:11:59;;;;;;;9.98;7.47;;;15.00;50.20;;;;;;4993966;28;20076;-66
2021/03/09 12:14:25;;;;;;;9.70;8.73;;;15.70;49.60;;;;;;4993361;28;20057;-66
2021/03/09 12:16:51;;;;;;;10.70;8.55;;;15.80;50.70;;;;;;4992975;28;20034;-66
2021/03/09 12:19:16;;;;;;;9.45;7.85;;;16.20;48.70;;;;;;4993873;28;20027;-67
2021/03/09 12:21:42;;;;;;;8.98;8.07;;;16.00;48.10;;;;;;4986912;28;20023;-67
2021/03/09 12:24:09;;;;;;;10.43;9.00;;;15.80;49.30;;;;;;4988862;28;20104;-66
2021/03/09 12:26:34;;;;;;;9.20;8.30;;;16.20;50.10;;;;;;4997046;28;20389;-66
2021/03/09 12:29:00;;;;;;;10.32;8.75;;;16.70;47.40;;;;;;4992740;28;20034;-67
2021/03/09 12:31:27;;;;;;;11.35;8.40;;;17.10;46.20;;;;;;4993040;28;20109;-66
2021/03/09 12:33:52;;;;;;;9.82;8.93;;;16.80;47.40;;;;;;4992786;28;20037;-66
2021/03/09 12:36:18;;;;;;;10.43;9.07;;;17.50;45.80;;;;;;4993571;28;20042;-67
2021/03/09 12:38:44;;;;;;;10.32;9.10;;;18.20;45.50;;;;;;4993615;28;20098;-65
2021/03/09 12:41:09;;;;;;;9.60;8.68;;;18.60;43.70;;;;;;4993610;28;20022;-65